sensor_id;sensor_type;location;lat;lon;timestamp;P1;durP1;ratioP1;P2;durP2;ratioP2
30215;SDS011;17028;47.642;8.070;2022-07-19T00:03:21;3.22;;;1.73;;
30215;SDS011;17028;47.642;8.070;2022-07-19T00:08:22;3.05;;;1.70;;
30215;SDS011;17028;47.642;8.070;2022-07-19T00:13:23;2.83;;;1.60;;
30215;SDS011;17028;47.642;8.070;2022-07-19T00:18:24;3.22;;;1.90;;
30215;SDS011;17028;47.642;8.070;2022-07-19T00:23:25;4.10;;;1.58;;
30215;SDS011;17028;47.642;8.070;2022-07-19T00:28:26;3.42;;;1.90;;
30215;SDS011;17028;47.642;8.070;2022-07-19T00:33:27;3.83;;;1.65;;
30215;SDS011;17028;47.642;8.070;2022-07-19T00:38:28;2.25;;;1.27;;
30215;SDS011;17028;47.642;8.070;2022-07-19T00:43:29;2.42;;;1.45;;
30215;SDS011;17028;47.642;8.070;2022-07-19T00:48:30;4.68;;;1.52;;
30215;SDS011;17028;47.642;8.070;2022-07-19T00:53:31;3.10;;;1.70;;
30215;SDS011;17028;47.642;8.070;2022-07-19T00:58:35;2.63;;;1.77;;
30215;SDS011;17028;47.642;8.070;2022-07-19T01:03:38;2.17;;;1.50;;
30215;SDS011;17028;47.642;8.070;2022-07-19T01:08:40;2.35;;;1.50;;
30215;SDS011;17028;47.642;8.070;2022-07-19T01:13:41;3.42;;;1.80;;
30215;SDS011;17028;47.642;8.070;2022-07-19T01:18:43;3.30;;;1.80;;
30215;SDS011;17028;47.642;8.070;2022-07-19T01:23:44;2.95;;;1.67;;
30215;SDS011;17028;47.642;8.070;2022-07-19T01:28:45;4.97;;;1.70;;
30215;SDS011;17028;47.642;8.070;2022-07-19T01:33:47;8.63;;;2.42;;
30215;SDS011;17028;47.642;8.070;2022-07-19T01:38:48;4.45;;;2.42;;
30215;SDS011;17028;47.642;8.070;2022-07-19T01:43:49;7.93;;;3.00;;
30215;SDS011;17028;47.642;8.070;2022-07-19T01:48:50;5.43;;;3.05;;
30215;SDS011;17028;47.642;8.070;2022-07-19T01:53:51;5.80;;;3.05;;
30215;SDS011;17028;47.642;8.070;2022-07-19T01:58:52;4.55;;;2.70;;
30215;SDS011;17028;47.642;8.070;2022-07-19T02:03:53;4.47;;;2.40;;
30215;SDS011;17028;47.642;8.070;2022-07-19T02:08:54;3.97;;;1.95;;
30215;SDS011;17028;47.642;8.070;2022-07-19T02:13:55;3.53;;;1.90;;
30215;SDS011;17028;47.642;8.070;2022-07-19T02:18:57;3.83;;;1.92;;
30215;SDS011;17028;47.642;8.070;2022-07-19T02:23:58;2.95;;;1.60;;
30215;SDS011;17028;47.642;8.070;2022-07-19T02:28:59;3.25;;;1.60;;
30215;SDS011;17028;47.642;8.070;2022-07-19T02:34:01;2.78;;;1.40;;
30215;SDS011;17028;47.642;8.070;2022-07-19T02:39:02;2.95;;;1.60;;
30215;SDS011;17028;47.642;8.070;2022-07-19T02:44:03;5.03;;;1.73;;
30215;SDS011;17028;47.642;8.070;2022-07-19T02:49:04;2.50;;;1.70;;
30215;SDS011;17028;47.642;8.070;2022-07-19T02:54:05;2.03;;;1.40;;
30215;SDS011;17028;47.642;8.070;2022-07-19T02:59:06;1.80;;;1.30;;
30215;SDS011;17028;47.642;8.070;2022-07-19T03:04:07;2.40;;;1.35;;
30215;SDS011;17028;47.642;8.070;2022-07-19T03:09:08;3.05;;;1.60;;
30215;SDS011;17028;47.642;8.070;2022-07-19T03:14:09;2.92;;;1.60;;
30215;SDS011;17028;47.642;8.070;2022-07-19T03:19:10;3.50;;;1.67;;
30215;SDS011;17028;47.642;8.070;2022-07-19T03:24:11;2.63;;;1.65;;
30215;SDS011;17028;47.642;8.070;2022-07-19T03:29:12;2.25;;;1.50;;
30215;SDS011;17028;47.642;8.070;2022-07-19T03:34:13;3.20;;;1.63;;
30215;SDS011;17028;47.642;8.070;2022-07-19T03:39:14;1.70;;;1.30;;
30215;SDS011;17028;47.642;8.070;2022-07-19T03:44:16;3.72;;;1.75;;
30215;SDS011;17028;47.642;8.070;2022-07-19T03:49:17;2.10;;;1.40;;
30215;SDS011;17028;47.642;8.070;2022-07-19T03:54:18;2.85;;;1.75;;
30215;SDS011;17028;47.642;8.070;2022-07-19T03:59:19;3.75;;;1.98;;
30215;SDS011;17028;47.642;8.070;2022-07-19T04:04:23;2.53;;;1.50;;
30215;SDS011;17028;47.642;8.070;2022-07-19T04:09:24;3.97;;;1.60;;
30215;SDS011;17028;47.642;8.070;2022-07-19T04:14:25;3.55;;;1.50;;
30215;SDS011;17028;47.642;8.070;2022-07-19T04:19:26;2.25;;;1.30;;
30215;SDS011;17028;47.642;8.070;2022-07-19T04:24:27;3.53;;;1.45;;
30215;SDS011;17028;47.642;8.070;2022-07-19T04:29:28;3.53;;;1.40;;
30215;SDS011;17028;47.642;8.070;2022-07-19T04:34:29;3.70;;;1.80;;
30215;SDS011;17028;47.642;8.070;2022-07-19T04:39:30;3.20;;;1.58;;
30215;SDS011;17028;47.642;8.070;2022-07-19T04:44:31;2.95;;;1.60;;
30215;SDS011;17028;47.642;8.070;2022-07-19T04:49:32;3.28;;;1.25;;
30215;SDS011;17028;47.642;8.070;2022-07-19T04:54:33;3.42;;;1.50;;
30215;SDS011;17028;47.642;8.070;2022-07-19T04:59:34;2.72;;;1.63;;
30215;SDS011;17028;47.642;8.070;2022-07-19T05:04:35;2.92;;;1.42;;
30215;SDS011;17028;47.642;8.070;2022-07-19T05:09:36;4.18;;;1.52;;
30215;SDS011;17028;47.642;8.070;2022-07-19T05:14:37;3.60;;;1.58;;
30215;SDS011;17028;47.642;8.070;2022-07-19T05:19:38;4.32;;;1.60;;
30215;SDS011;17028;47.642;8.070;2022-07-19T05:24:39;1.73;;;1.40;;
30215;SDS011;17028;47.642;8.070;2022-07-19T05:29:40;2.97;;;1.75;;
30215;SDS011;17028;47.642;8.070;2022-07-19T05:34:41;1.90;;;1.45;;
30215;SDS011;17028;47.642;8.070;2022-07-19T05:39:43;2.38;;;1.52;;
30215;SDS011;17028;47.642;8.070;2022-07-19T05:44:44;2.00;;;1.30;;
30215;SDS011;17028;47.642;8.070;2022-07-19T05:49:45;4.75;;;1.70;;
30215;SDS011;17028;47.642;8.070;2022-07-19T05:54:46;2.88;;;1.67;;
30215;SDS011;17028;47.642;8.070;2022-07-19T05:59:47;2.33;;;1.60;;
30215;SDS011;17028;47.642;8.070;2022-07-19T06:04:48;2.72;;;1.60;;
30215;SDS011;17028;47.642;8.070;2022-07-19T06:09:49;2.45;;;1.42;;
30215;SDS011;17028;47.642;8.070;2022-07-19T06:14:50;2.63;;;1.50;;
30215;SDS011;17028;47.642;8.070;2022-07-19T06:19:51;4.80;;;1.60;;
30215;SDS011;17028;47.642;8.070;2022-07-19T06:24:52;2.97;;;1.70;;
30215;SDS011;17028;47.642;8.070;2022-07-19T06:29:53;2.22;;;1.30;;
30215;SDS011;17028;47.642;8.070;2022-07-19T06:34:54;1.98;;;1.45;;
30215;SDS011;17028;47.642;8.070;2022-07-19T06:39:55;2.13;;;1.40;;
30215;SDS011;17028;47.642;8.070;2022-07-19T06:44:56;2.83;;;1.65;;
30215;SDS011;17028;47.642;8.070;2022-07-19T06:49:59;2.25;;;1.48;;
30215;SDS011;17028;47.642;8.070;2022-07-19T06:55:00;2.22;;;1.35;;
30215;SDS011;17028;47.642;8.070;2022-07-19T07:00:02;2.70;;;1.50;;
30215;SDS011;17028;47.642;8.070;2022-07-19T07:05:08;3.33;;;1.65;;
30215;SDS011;17028;47.642;8.070;2022-07-19T07:10:09;3.28;;;2.03;;
30215;SDS011;17028;47.642;8.070;2022-07-19T07:15:11;7.15;;;2.10;;
30215;SDS011;17028;47.642;8.070;2022-07-19T07:20:12;3.10;;;1.90;;
30215;SDS011;17028;47.642;8.070;2022-07-19T07:25:13;3.42;;;2.03;;
30215;SDS011;17028;47.642;8.070;2022-07-19T07:30:14;3.35;;;2.15;;
30215;SDS011;17028;47.642;8.070;2022-07-19T07:35:15;5.38;;;1.90;;
30215;SDS011;17028;47.642;8.070;2022-07-19T07:40:16;3.53;;;2.17;;
30215;SDS011;17028;47.642;8.070;2022-07-19T07:45:17;5.13;;;2.38;;
30215;SDS011;17028;47.642;8.070;2022-07-19T07:50:18;4.75;;;2.20;;
30215;SDS011;17028;47.642;8.070;2022-07-19T07:55:19;3.03;;;2.15;;
30215;SDS011;17028;47.642;8.070;2022-07-19T08:00:20;5.80;;;2.40;;
30215;SDS011;17028;47.642;8.070;2022-07-19T08:05:21;3.88;;;2.20;;
30215;SDS011;17028;47.642;8.070;2022-07-19T08:10:23;4.55;;;2.20;;
30215;SDS011;17028;47.642;8.070;2022-07-19T08:15:26;4.03;;;2.20;;
30215;SDS011;17028;47.642;8.070;2022-07-19T08:20:27;3.75;;;2.10;;
30215;SDS011;17028;47.642;8.070;2022-07-19T08:25:28;4.75;;;2.45;;
30215;SDS011;17028;47.642;8.070;2022-07-19T08:30:30;6.20;;;2.22;;
30215;SDS011;17028;47.642;8.070;2022-07-19T08:35:32;3.63;;;2.10;;
30215;SDS011;17028;47.642;8.070;2022-07-19T08:40:33;5.22;;;2.42;;
30215;SDS011;17028;47.642;8.070;2022-07-19T08:45:35;4.65;;;2.28;;
30215;SDS011;17028;47.642;8.070;2022-07-19T08:50:40;5.18;;;2.42;;
30215;SDS011;17028;47.642;8.070;2022-07-19T08:55:41;5.40;;;2.17;;
30215;SDS011;17028;47.642;8.070;2022-07-19T09:00:42;3.78;;;2.08;;
30215;SDS011;17028;47.642;8.070;2022-07-19T09:05:43;3.75;;;2.33;;
30215;SDS011;17028;47.642;8.070;2022-07-19T09:10:48;6.95;;;2.28;;
30215;SDS011;17028;47.642;8.070;2022-07-19T09:16:08;4.20;;;2.33;;
30215;SDS011;17028;47.642;8.070;2022-07-19T09:21:09;3.55;;;2.25;;
30215;SDS011;17028;47.642;8.070;2022-07-19T09:26:10;4.30;;;2.20;;
30215;SDS011;17028;47.642;8.070;2022-07-19T09:31:11;2.95;;;2.30;;
30215;SDS011;17028;47.642;8.070;2022-07-19T09:36:13;7.00;;;2.45;;
30215;SDS011;17028;47.642;8.070;2022-07-19T09:41:18;5.07;;;2.58;;
30215;SDS011;17028;47.642;8.070;2022-07-19T09:46:27;6.97;;;1.90;;
30215;SDS011;17028;47.642;8.070;2022-07-19T09:51:32;5.28;;;2.05;;
30215;SDS011;17028;47.642;8.070;2022-07-19T09:56:37;4.65;;;2.00;;
30215;SDS011;17028;47.642;8.070;2022-07-19T10:01:39;7.38;;;2.40;;
30215;SDS011;17028;47.642;8.070;2022-07-19T10:06:43;4.87;;;2.43;;
30215;SDS011;17028;47.642;8.070;2022-07-19T10:11:45;3.97;;;1.92;;
30215;SDS011;17028;47.642;8.070;2022-07-19T10:16:55;3.92;;;1.95;;
30215;SDS011;17028;47.642;8.070;2022-07-19T10:22:02;4.65;;;2.00;;
30215;SDS011;17028;47.642;8.070;2022-07-19T10:27:04;6.22;;;2.25;;
30215;SDS011;17028;47.642;8.070;2022-07-19T10:32:09;5.97;;;2.25;;
30215;SDS011;17028;47.642;8.070;2022-07-19T10:37:12;7.38;;;2.42;;
30215;SDS011;17028;47.642;8.070;2022-07-19T10:47:21;4.45;;;2.25;;
30215;SDS011;17028;47.642;8.070;2022-07-19T10:57:36;4.43;;;2.40;;
30215;SDS011;17028;47.642;8.070;2022-07-19T11:02:39;5.57;;;2.45;;
30215;SDS011;17028;47.642;8.070;2022-07-19T11:07:40;3.95;;;2.20;;
30215;SDS011;17028;47.642;8.070;2022-07-19T11:12:49;3.38;;;2.10;;
30215;SDS011;17028;47.642;8.070;2022-07-19T11:17:55;4.05;;;2.13;;
30215;SDS011;17028;47.642;8.070;2022-07-19T11:23:07;4.72;;;2.15;;
30215;SDS011;17028;47.642;8.070;2022-07-19T11:28:21;3.55;;;2.17;;
30215;SDS011;17028;47.642;8.070;2022-07-19T11:33:23;5.68;;;2.47;;
30215;SDS011;17028;47.642;8.070;2022-07-19T11:38:40;4.78;;;1.98;;
30215;SDS011;17028;47.642;8.070;2022-07-19T11:58:19;6.47;;;2.22;;
30215;SDS011;17028;47.642;8.070;2022-07-19T12:03:20;3.60;;;2.15;;
30215;SDS011;17028;47.642;8.070;2022-07-19T12:08:21;4.68;;;2.05;;
30215;SDS011;17028;47.642;8.070;2022-07-19T12:13:32;6.10;;;2.53;;
30215;SDS011;17028;47.642;8.070;2022-07-19T12:29:34;4.20;;;2.20;;
30215;SDS011;17028;47.642;8.070;2022-07-19T12:39:54;6.15;;;2.22;;
30215;SDS011;17028;47.642;8.070;2022-07-19T12:44:56;5.68;;;2.33;;
30215;SDS011;17028;47.642;8.070;2022-07-19T12:49:57;8.13;;;2.42;;
30215;SDS011;17028;47.642;8.070;2022-07-19T12:54:59;6.57;;;2.45;;
30215;SDS011;17028;47.642;8.070;2022-07-19T13:00:00;4.90;;;2.40;;
30215;SDS011;17028;47.642;8.070;2022-07-19T13:05:02;6.50;;;2.10;;
30215;SDS011;17028;47.642;8.070;2022-07-19T13:10:04;3.75;;;2.22;;
30215;SDS011;17028;47.642;8.070;2022-07-19T13:15:06;5.82;;;2.42;;
30215;SDS011;17028;47.642;8.070;2022-07-19T13:20:08;4.40;;;2.50;;
30215;SDS011;17028;47.642;8.070;2022-07-19T13:25:10;6.50;;;2.60;;
30215;SDS011;17028;47.642;8.070;2022-07-19T13:30:12;4.45;;;2.05;;
30215;SDS011;17028;47.642;8.070;2022-07-19T13:35:13;7.15;;;2.03;;
30215;SDS011;17028;47.642;8.070;2022-07-19T13:40:14;4.53;;;2.15;;
30215;SDS011;17028;47.642;8.070;2022-07-19T13:45:15;5.28;;;2.47;;
30215;SDS011;17028;47.642;8.070;2022-07-19T13:50:16;5.22;;;2.55;;
30215;SDS011;17028;47.642;8.070;2022-07-19T13:55:17;6.47;;;2.40;;
30215;SDS011;17028;47.642;8.070;2022-07-19T14:00:18;3.05;;;1.98;;
30215;SDS011;17028;47.642;8.070;2022-07-19T14:05:21;4.40;;;2.03;;
30215;SDS011;17028;47.642;8.070;2022-07-19T14:10:22;5.32;;;2.13;;
30215;SDS011;17028;47.642;8.070;2022-07-19T14:15:23;7.95;;;2.25;;
30215;SDS011;17028;47.642;8.070;2022-07-19T14:20:24;4.60;;;2.08;;
30215;SDS011;17028;47.642;8.070;2022-07-19T14:25:25;5.68;;;2.10;;
30215;SDS011;17028;47.642;8.070;2022-07-19T14:30:26;6.90;;;2.28;;
30215;SDS011;17028;47.642;8.070;2022-07-19T14:35:27;4.43;;;2.42;;
30215;SDS011;17028;47.642;8.070;2022-07-19T14:40:28;2.70;;;1.83;;
30215;SDS011;17028;47.642;8.070;2022-07-19T14:45:29;5.30;;;2.10;;
30215;SDS011;17028;47.642;8.070;2022-07-19T14:50:31;4.75;;;2.40;;
30215;SDS011;17028;47.642;8.070;2022-07-19T14:55:32;3.58;;;1.98;;
30215;SDS011;17028;47.642;8.070;2022-07-19T15:00:33;4.32;;;2.08;;
30215;SDS011;17028;47.642;8.070;2022-07-19T15:05:34;4.63;;;1.88;;
30215;SDS011;17028;47.642;8.070;2022-07-19T15:10:35;5.25;;;1.90;;
30215;SDS011;17028;47.642;8.070;2022-07-19T15:15:36;4.80;;;2.20;;
30215;SDS011;17028;47.642;8.070;2022-07-19T15:20:37;4.72;;;2.20;;
30215;SDS011;17028;47.642;8.070;2022-07-19T15:25:39;5.85;;;2.20;;
30215;SDS011;17028;47.642;8.070;2022-07-19T15:30:43;3.67;;;1.70;;
30215;SDS011;17028;47.642;8.070;2022-07-19T15:35:44;6.25;;;1.77;;
30215;SDS011;17028;47.642;8.070;2022-07-19T15:40:45;8.65;;;1.80;;
30215;SDS011;17028;47.642;8.070;2022-07-19T15:45:46;2.72;;;1.88;;
30215;SDS011;17028;47.642;8.070;2022-07-19T15:50:47;4.60;;;1.80;;
30215;SDS011;17028;47.642;8.070;2022-07-19T15:55:48;6.10;;;1.80;;
30215;SDS011;17028;47.642;8.070;2022-07-19T16:00:50;3.88;;;1.90;;
30215;SDS011;17028;47.642;8.070;2022-07-19T16:05:51;2.67;;;1.80;;
30215;SDS011;17028;47.642;8.070;2022-07-19T16:10:52;4.15;;;1.83;;
30215;SDS011;17028;47.642;8.070;2022-07-19T16:15:53;4.88;;;2.30;;
30215;SDS011;17028;47.642;8.070;2022-07-19T16:20:54;3.92;;;2.10;;
30215;SDS011;17028;47.642;8.070;2022-07-19T16:25:55;6.35;;;2.05;;
30215;SDS011;17028;47.642;8.070;2022-07-19T16:30:56;3.42;;;2.00;;
30215;SDS011;17028;47.642;8.070;2022-07-19T16:35:57;5.80;;;2.10;;
30215;SDS011;17028;47.642;8.070;2022-07-19T16:40:58;5.50;;;2.08;;
30215;SDS011;17028;47.642;8.070;2022-07-19T16:45:59;6.65;;;2.45;;
30215;SDS011;17028;47.642;8.070;2022-07-19T16:51:00;4.25;;;2.20;;
30215;SDS011;17028;47.642;8.070;2022-07-19T16:56:02;3.42;;;2.08;;
30215;SDS011;17028;47.642;8.070;2022-07-19T17:01:04;4.68;;;2.33;;
30215;SDS011;17028;47.642;8.070;2022-07-19T17:06:06;5.28;;;2.17;;
30215;SDS011;17028;47.642;8.070;2022-07-19T17:11:07;6.30;;;2.38;;
30215;SDS011;17028;47.642;8.070;2022-07-19T17:16:08;5.65;;;2.10;;
30215;SDS011;17028;47.642;8.070;2022-07-19T17:21:09;3.70;;;1.95;;
30215;SDS011;17028;47.642;8.070;2022-07-19T17:26:10;5.55;;;1.83;;
30215;SDS011;17028;47.642;8.070;2022-07-19T17:31:11;3.85;;;2.22;;
30215;SDS011;17028;47.642;8.070;2022-07-19T17:36:12;3.67;;;2.05;;
30215;SDS011;17028;47.642;8.070;2022-07-19T17:41:13;4.45;;;2.00;;
30215;SDS011;17028;47.642;8.070;2022-07-19T17:46:17;5.50;;;2.10;;
30215;SDS011;17028;47.642;8.070;2022-07-19T17:51:19;5.35;;;2.22;;
30215;SDS011;17028;47.642;8.070;2022-07-19T17:56:20;4.43;;;2.15;;
30215;SDS011;17028;47.642;8.070;2022-07-19T18:01:21;4.05;;;1.90;;
30215;SDS011;17028;47.642;8.070;2022-07-19T18:06:22;3.78;;;1.77;;
30215;SDS011;17028;47.642;8.070;2022-07-19T18:11:23;2.95;;;1.85;;
30215;SDS011;17028;47.642;8.070;2022-07-19T18:16:24;2.38;;;1.48;;
30215;SDS011;17028;47.642;8.070;2022-07-19T18:21:25;2.30;;;1.50;;
30215;SDS011;17028;47.642;8.070;2022-07-19T18:26:26;1.95;;;1.50;;
30215;SDS011;17028;47.642;8.070;2022-07-19T18:31:27;1.83;;;1.30;;
30215;SDS011;17028;47.642;8.070;2022-07-19T18:36:29;2.30;;;1.40;;
30215;SDS011;17028;47.642;8.070;2022-07-19T18:41:30;2.92;;;1.65;;
30215;SDS011;17028;47.642;8.070;2022-07-19T18:46:31;3.03;;;1.35;;
30215;SDS011;17028;47.642;8.070;2022-07-19T18:51:32;2.63;;;1.70;;
30215;SDS011;17028;47.642;8.070;2022-07-19T18:56:33;2.80;;;1.88;;
30215;SDS011;17028;47.642;8.070;2022-07-19T19:01:34;3.13;;;1.80;;
30215;SDS011;17028;47.642;8.070;2022-07-19T19:06:35;2.95;;;2.00;;
30215;SDS011;17028;47.642;8.070;2022-07-19T19:11:36;5.50;;;2.50;;
30215;SDS011;17028;47.642;8.070;2022-07-19T19:16:37;5.20;;;2.25;;
30215;SDS011;17028;47.642;8.070;2022-07-19T19:21:39;4.43;;;2.10;;
30215;SDS011;17028;47.642;8.070;2022-07-19T19:26:40;3.60;;;2.13;;
30215;SDS011;17028;47.642;8.070;2022-07-19T19:31:41;4.13;;;2.10;;
30215;SDS011;17028;47.642;8.070;2022-07-19T19:36:42;3.83;;;2.10;;
30215;SDS011;17028;47.642;8.070;2022-07-19T19:41:43;4.05;;;2.22;;
30215;SDS011;17028;47.642;8.070;2022-07-19T19:46:44;3.08;;;2.10;;
30215;SDS011;17028;47.642;8.070;2022-07-19T19:51:45;3.25;;;1.88;;
30215;SDS011;17028;47.642;8.070;2022-07-19T19:56:46;3.97;;;1.98;;
30215;SDS011;17028;47.642;8.070;2022-07-19T20:01:47;5.03;;;2.10;;
30215;SDS011;17028;47.642;8.070;2022-07-19T20:06:49;4.13;;;2.10;;
30215;SDS011;17028;47.642;8.070;2022-07-19T20:11:50;5.82;;;2.60;;
30215;SDS011;17028;47.642;8.070;2022-07-19T20:16:51;4.35;;;2.47;;
30215;SDS011;17028;47.642;8.070;2022-07-19T20:21:52;5.00;;;2.20;;
30215;SDS011;17028;47.642;8.070;2022-07-19T20:26:53;5.60;;;2.10;;
30215;SDS011;17028;47.642;8.070;2022-07-19T20:31:54;5.97;;;2.55;;
30215;SDS011;17028;47.642;8.070;2022-07-19T20:36:55;3.92;;;2.08;;
30215;SDS011;17028;47.642;8.070;2022-07-19T20:41:57;4.80;;;2.45;;
30215;SDS011;17028;47.642;8.070;2022-07-19T20:46:58;3.75;;;1.92;;
30215;SDS011;17028;47.642;8.070;2022-07-19T20:51:59;5.20;;;2.80;;
30215;SDS011;17028;47.642;8.070;2022-07-19T20:57:04;4.70;;;2.20;;
30215;SDS011;17028;47.642;8.070;2022-07-19T21:02:05;5.60;;;2.17;;
30215;SDS011;17028;47.642;8.070;2022-07-19T21:07:06;3.65;;;2.05;;
30215;SDS011;17028;47.642;8.070;2022-07-19T21:12:07;4.45;;;2.22;;
30215;SDS011;17028;47.642;8.070;2022-07-19T21:17:08;4.00;;;2.00;;
30215;SDS011;17028;47.642;8.070;2022-07-19T21:22:09;4.80;;;2.35;;
30215;SDS011;17028;47.642;8.070;2022-07-19T21:27:10;4.03;;;2.15;;
30215;SDS011;17028;47.642;8.070;2022-07-19T21:32:11;4.55;;;2.42;;
30215;SDS011;17028;47.642;8.070;2022-07-19T21:37:12;4.13;;;2.40;;
30215;SDS011;17028;47.642;8.070;2022-07-19T21:42:13;3.28;;;2.00;;
30215;SDS011;17028;47.642;8.070;2022-07-19T21:47:14;5.05;;;2.33;;
30215;SDS011;17028;47.642;8.070;2022-07-19T21:52:15;4.10;;;2.20;;
30215;SDS011;17028;47.642;8.070;2022-07-19T21:57:16;4.13;;;2.20;;
30215;SDS011;17028;47.642;8.070;2022-07-19T22:02:17;4.70;;;2.20;;
30215;SDS011;17028;47.642;8.070;2022-07-19T22:07:20;3.72;;;2.20;;
30215;SDS011;17028;47.642;8.070;2022-07-19T22:12:21;5.18;;;2.30;;
30215;SDS011;17028;47.642;8.070;2022-07-19T22:17:22;6.80;;;2.20;;
30215;SDS011;17028;47.642;8.070;2022-07-19T22:22:23;4.47;;;2.20;;
30215;SDS011;17028;47.642;8.070;2022-07-19T22:27:24;5.07;;;2.20;;
30215;SDS011;17028;47.642;8.070;2022-07-19T22:32:25;4.38;;;2.13;;
30215;SDS011;17028;47.642;8.070;2022-07-19T22:37:26;5.65;;;2.25;;
30215;SDS011;17028;47.642;8.070;2022-07-19T22:42:28;6.28;;;2.28;;
30215;SDS011;17028;47.642;8.070;2022-07-19T22:47:29;5.55;;;2.38;;
30215;SDS011;17028;47.642;8.070;2022-07-19T22:52:30;3.60;;;1.92;;
30215;SDS011;17028;47.642;8.070;2022-07-19T22:57:31;10.10;;;2.03;;
30215;SDS011;17028;47.642;8.070;2022-07-19T23:02:32;3.92;;;1.90;;
30215;SDS011;17028;47.642;8.070;2022-07-19T23:07:34;4.63;;;1.95;;
30215;SDS011;17028;47.642;8.070;2022-07-19T23:12:35;5.45;;;2.35;;
30215;SDS011;17028;47.642;8.070;2022-07-19T23:17:36;3.40;;;1.70;;
30215;SDS011;17028;47.642;8.070;2022-07-19T23:22:38;4.15;;;1.85;;
30215;SDS011;17028;47.642;8.070;2022-07-19T23:27:39;3.65;;;1.90;;
30215;SDS011;17028;47.642;8.070;2022-07-19T23:32:40;4.75;;;1.83;;
30215;SDS011;17028;47.642;8.070;2022-07-19T23:37:41;5.25;;;1.75;;
30215;SDS011;17028;47.642;8.070;2022-07-19T23:42:42;4.78;;;2.08;;
30215;SDS011;17028;47.642;8.070;2022-07-19T23:47:43;3.05;;;1.58;;
30215;SDS011;17028;47.642;8.070;2022-07-19T23:52:44;3.83;;;1.73;;
30215;SDS011;17028;47.642;8.070;2022-07-19T23:57:45;3.78;;;1.80;;
